createdAt,value
2022-08-30T00:00:17.346Z,21.89
2022-08-30T00:04:18.810Z,21.73
2022-08-30T00:08:20.368Z,21.55
2022-08-30T00:12:21.904Z,21.72
2022-08-30T00:16:24.185Z,21.74
2022-08-30T00:20:28.832Z,21.69
2022-08-30T00:24:30.597Z,21.81
2022-08-30T00:28:33.901Z,21.51
2022-08-30T00:32:35.456Z,21.66
2022-08-30T00:36:37.329Z,21.66
2022-08-30T00:40:41.678Z,21.67
2022-08-30T00:44:43.462Z,21.55
2022-08-30T00:48:49.406Z,21.42
2022-08-30T00:52:54.312Z,21.61
2022-08-30T00:56:55.861Z,21.65
2022-08-30T01:00:58.719Z,21.75
2022-08-30T01:05:02.421Z,21.77
2022-08-30T01:09:05.067Z,21.76
2022-08-30T01:13:09.472Z,21.76
2022-08-30T01:17:11.218Z,21.78
2022-08-30T01:21:23.063Z,21.78
2022-08-30T01:25:30.420Z,21.79
2022-08-30T01:29:32.388Z,21.73
2022-08-30T01:33:37.439Z,21.75
2022-08-30T01:37:39.059Z,21.64
2022-08-30T01:41:40.617Z,21.59
2022-08-30T01:45:42.532Z,21.73
2022-08-30T01:49:47.911Z,21.59
2022-08-30T01:53:49.994Z,21.59
2022-08-30T01:57:51.570Z,21.52
2022-08-30T02:01:53.399Z,21.45
2022-08-30T02:05:55.190Z,21.59
2022-08-30T02:09:56.752Z,21.56
2022-08-30T02:13:58.298Z,21.58
2022-08-30T02:18:01.269Z,21.54
2022-08-30T02:22:03.025Z,21.51
2022-08-30T02:26:05.254Z,21.32
2022-08-30T02:30:08.749Z,21.23
2022-08-30T02:34:10.472Z,21.30
2022-08-30T02:38:12.524Z,21.15
2022-08-30T02:42:14.339Z,21.40
2022-08-30T02:46:17.894Z,21.55
2022-08-30T02:50:19.781Z,21.53
2022-08-30T02:54:21.255Z,21.59
2022-08-30T02:58:22.962Z,21.53
2022-08-30T03:02:24.631Z,21.16
2022-08-30T03:06:26.064Z,21.26
2022-08-30T03:10:28.547Z,20.51
2022-08-30T03:14:30.120Z,21.12
2022-08-30T03:18:31.611Z,21.15
2022-08-30T03:22:33.308Z,21.22
2022-08-30T03:26:34.813Z,20.95
2022-08-30T03:30:36.394Z,21.06
2022-08-30T03:34:37.926Z,21.06
2022-08-30T03:38:39.741Z,21.09
2022-08-30T03:42:41.544Z,21.08
2022-08-30T03:46:46.310Z,21.01
2022-08-30T03:50:47.813Z,20.90
2022-08-30T03:54:49.368Z,20.91
2022-08-30T03:58:51.181Z,21.18
2022-08-30T04:02:52.645Z,20.91
2022-08-30T04:06:55.372Z,21.23
2022-08-30T04:10:56.924Z,21.25
2022-08-30T04:14:58.576Z,21.46
2022-08-30T04:19:00.077Z,21.35
2022-08-30T04:23:02.300Z,21.22
2022-08-30T04:27:04.532Z,21.20
2022-08-30T04:31:12.096Z,21.19
2022-08-30T04:35:14.395Z,21.28
2022-08-30T04:39:17.280Z,21.42
2022-08-30T04:43:18.861Z,21.34
2022-08-30T04:47:20.703Z,20.69
2022-08-30T04:51:22.172Z,22.52
2022-08-30T04:55:25.741Z,23.60
2022-08-30T04:59:27.299Z,22.85
2022-08-30T05:03:29.036Z,22.32
2022-08-30T05:07:32.211Z,21.32
2022-08-30T05:11:33.720Z,20.72
2022-08-30T05:15:36.206Z,21.54
2022-08-30T05:19:37.665Z,21.60
2022-08-30T05:23:40.748Z,21.57
2022-08-30T05:27:42.201Z,21.71
2022-08-30T05:31:47.106Z,21.72
2022-08-30T05:35:48.572Z,21.85
2022-08-30T05:39:51.533Z,21.92
2022-08-30T05:43:55.760Z,21.88
2022-08-30T05:47:57.434Z,21.66
2022-08-30T05:51:59.077Z,21.96
2022-08-30T05:56:06.087Z,21.90
2022-08-30T06:00:11.481Z,21.89
2022-08-30T06:04:16.482Z,22.06
2022-08-30T06:08:18.441Z,22.28
2022-08-30T06:12:20.186Z,21.67
2022-08-30T06:16:24.049Z,21.06
2022-08-30T06:20:25.551Z,22.04
2022-08-30T06:24:41.212Z,22.58
2022-08-30T06:28:49.317Z,22.36
2022-08-30T06:32:50.788Z,22.69
2022-08-30T06:36:52.223Z,22.48
2022-08-30T06:40:53.944Z,21.92
2022-08-30T06:44:55.502Z,22.51
2022-08-30T06:48:57.219Z,22.20
2022-08-30T06:53:05.513Z,23.13
2022-08-30T06:57:07.201Z,22.13
2022-08-30T07:01:15.531Z,22.96
2022-08-30T07:05:19.002Z,23.55
2022-08-30T07:09:23.125Z,23.36
2022-08-30T07:13:24.976Z,23.91
2022-08-30T07:17:45.295Z,24.15
2022-08-30T07:21:48.833Z,23.75
2022-08-30T07:25:50.796Z,23.41
2022-08-30T07:29:52.258Z,24.22
2022-08-30T07:33:54.178Z,23.49
2022-08-30T07:37:55.728Z,23.83
2022-08-30T07:41:57.165Z,23.02
2022-08-30T07:46:07.337Z,23.21
2022-08-30T07:50:08.920Z,23.20
2022-08-30T07:54:10.615Z,23.16
2022-08-30T07:58:12.075Z,23.19
2022-08-30T08:02:13.565Z,23.33
2022-08-30T08:06:17.016Z,23.23
2022-08-30T08:10:19.011Z,23.07
2022-08-30T08:14:23.474Z,23.35
2022-08-30T08:18:24.948Z,23.27
2022-08-30T08:22:26.798Z,24.08
2022-08-30T08:26:28.290Z,24.17
2022-08-30T08:30:34.097Z,23.43
2022-08-30T08:34:36.023Z,24.06
2022-08-30T08:38:37.880Z,23.35
2022-08-30T08:43:03.069Z,24.25
2022-08-30T08:47:26.491Z,24.16
2022-08-30T08:51:51.862Z,24.27
2022-08-30T08:55:53.942Z,23.91
2022-08-30T08:59:55.400Z,24.48
2022-08-30T09:03:59.053Z,24.86
2022-08-30T09:08:06.627Z,24.17
2022-08-30T09:12:13.152Z,24.38
2022-08-30T09:16:51.784Z,24.67
2022-08-30T09:20:54.208Z,25.02
2022-08-30T09:25:03.081Z,25.04
2022-08-30T09:29:17.750Z,25.29
2022-08-30T09:33:20.782Z,23.78
2022-08-30T09:37:33.156Z,24.09
2022-08-30T09:41:40.155Z,24.18
2022-08-30T09:46:02.745Z,23.43
2022-08-30T09:50:09.020Z,23.75
2022-08-30T09:54:22.617Z,23.97
2022-08-30T09:58:38.012Z,23.45
2022-08-30T10:03:07.640Z,24.09
2022-08-30T10:07:28.968Z,24.12
2022-08-30T10:11:50.577Z,24.27
2022-08-30T10:16:01.879Z,24.22
2022-08-30T10:20:32.246Z,24.55
2022-08-30T10:25:07.055Z,24.01
2022-08-30T10:29:16.630Z,24.15
2022-08-30T10:33:26.008Z,23.16
2022-08-30T10:37:29.797Z,23.80
2022-08-30T10:41:31.391Z,24.16
2022-08-30T10:45:37.109Z,23.74
2022-08-30T10:49:44.565Z,23.52
2022-08-30T10:54:04.314Z,24.21
2022-08-30T10:58:06.407Z,24.52
2022-08-30T11:02:50.045Z,24.21
2022-08-30T11:07:10.228Z,22.90
2022-08-30T11:11:46.818Z,24.07
2022-08-30T11:16:02.717Z,24.16
2022-08-30T11:20:05.661Z,23.85
2022-08-30T11:24:19.609Z,23.79
2022-08-30T11:28:35.973Z,23.12
2022-08-30T11:32:59.524Z,24.25
2022-08-30T11:37:03.229Z,24.55
2022-08-30T11:41:28.864Z,23.70
2022-08-30T11:45:37.154Z,23.84
2022-08-30T11:50:09.862Z,24.84
2022-08-30T11:54:24.539Z,25.08
2022-08-30T11:58:51.840Z,23.76
2022-08-30T12:03:22.768Z,25.43
2022-08-30T12:08:00.818Z,24.90
2022-08-30T12:12:11.206Z,25.01
2022-08-30T12:16:20.639Z,25.29
2022-08-30T12:20:28.358Z,25.18
2022-08-30T12:24:36.671Z,24.29
2022-08-30T12:28:38.716Z,24.85
2022-08-30T12:32:48.772Z,25.52
2022-08-30T12:36:58.387Z,25.41
2022-08-30T12:41:01.691Z,22.83
2022-08-30T12:45:16.188Z,22.89
2022-08-30T12:49:18.923Z,24.18
2022-08-30T12:53:41.878Z,23.09
2022-08-30T12:58:00.745Z,22.58
2022-08-30T13:02:23.686Z,23.94
2022-08-30T13:06:45.253Z,23.68
2022-08-30T13:10:57.042Z,24.09
2022-08-30T13:15:19.113Z,22.97
2022-08-30T13:19:42.458Z,23.16
2022-08-30T13:23:44.833Z,22.67
2022-08-30T13:27:46.286Z,23.28
2022-08-30T13:31:49.766Z,23.63
2022-08-30T13:35:52.999Z,24.52
2022-08-30T13:39:55.830Z,24.18
2022-08-30T13:44:14.072Z,22.68
2022-08-30T13:48:24.739Z,23.41
2022-08-30T13:52:26.760Z,24.30
2022-08-30T13:56:31.942Z,23.89
2022-08-30T14:00:37.760Z,23.96
2022-08-30T14:04:39.927Z,24.31
2022-08-30T14:08:46.338Z,22.86
2022-08-30T14:12:53.505Z,23.95
2022-08-30T14:16:55.475Z,23.81
2022-08-30T14:20:57.336Z,24.06
2022-08-30T14:25:01.323Z,23.79
2022-08-30T14:29:09.060Z,23.43
2022-08-30T14:33:11.042Z,24.19
2022-08-30T14:37:14.901Z,24.08
2022-08-30T14:41:16.470Z,23.19
2022-08-30T14:45:18.144Z,23.55
2022-08-30T14:49:21.839Z,22.26
2022-08-30T14:53:24.739Z,23.78
2022-08-30T14:57:26.394Z,23.69
2022-08-30T15:01:29.721Z,23.22
2022-08-30T15:05:32.294Z,23.28
2022-08-30T15:09:34.403Z,23.65
2022-08-30T15:13:36.719Z,23.38
2022-08-30T15:17:38.825Z,23.87
2022-08-30T15:21:43.546Z,23.49
2022-08-30T15:25:45.597Z,23.02
2022-08-30T15:29:47.133Z,23.40
2022-08-30T15:33:48.712Z,22.90
2022-08-30T15:37:51.257Z,22.63
2022-08-30T15:41:57.186Z,23.08
2022-08-30T15:46:19.658Z,22.90
2022-08-30T15:50:21.138Z,22.28
2022-08-30T15:54:23.775Z,22.82
2022-08-30T15:58:25.340Z,23.11
2022-08-30T16:02:28.040Z,23.41
2022-08-30T16:06:37.190Z,23.31
2022-08-30T16:10:40.285Z,23.10
2022-08-30T16:14:44.704Z,22.18
2022-08-30T16:18:53.647Z,23.01
2022-08-30T16:22:55.870Z,22.57
2022-08-30T16:26:57.854Z,22.72
2022-08-30T16:31:00.244Z,22.54
2022-08-30T16:35:06.564Z,22.80
2022-08-30T16:39:09.360Z,23.11
2022-08-30T16:43:11.184Z,23.13
2022-08-30T16:47:13.537Z,22.72
2022-08-30T16:51:20.320Z,22.97
2022-08-30T16:55:22.565Z,22.65
2022-08-30T16:59:25.103Z,22.92
2022-08-30T17:03:26.661Z,22.96
2022-08-30T17:07:28.145Z,22.04
2022-08-30T17:11:30.999Z,22.19
2022-08-30T17:15:33.171Z,21.99
2022-08-30T17:19:41.048Z,21.99
2022-08-30T17:23:42.975Z,21.58
2022-08-30T17:27:46.627Z,21.91
2022-08-30T17:31:51.234Z,21.92
2022-08-30T17:35:54.395Z,21.57
2022-08-30T17:39:59.271Z,21.68
2022-08-30T17:44:00.761Z,21.73
2022-08-30T17:48:02.508Z,21.63
2022-08-30T17:52:04.665Z,21.52
2022-08-30T17:56:08.575Z,21.21
2022-08-30T18:00:15.879Z,21.29
2022-08-30T18:04:19.736Z,21.01
2022-08-30T18:08:21.920Z,20.83
2022-08-30T18:12:23.468Z,20.75
2022-08-30T18:16:26.189Z,20.65
2022-08-30T18:20:28.301Z,20.51
2022-08-30T18:24:32.835Z,20.44
2022-08-30T18:28:34.589Z,20.33
2022-08-30T18:32:38.067Z,20.40
2022-08-30T18:36:40.710Z,20.34
2022-08-30T18:40:44.215Z,20.39
2022-08-30T18:44:46.864Z,20.34
2022-08-30T18:48:49.207Z,20.05
2022-08-30T18:52:52.589Z,19.95
2022-08-30T18:56:57.979Z,20.06
2022-08-30T19:00:59.488Z,19.87
2022-08-30T19:05:01.155Z,19.94
2022-08-30T19:09:02.807Z,20.02
2022-08-30T19:13:11.045Z,19.94
2022-08-30T19:17:13.338Z,19.66
2022-08-30T19:21:14.935Z,19.42
2022-08-30T19:25:20.864Z,19.23
2022-08-30T19:29:22.344Z,18.54
2022-08-30T19:33:25.761Z,17.81
2022-08-30T19:37:28.132Z,18.53
2022-08-30T19:41:29.660Z,18.78
2022-08-30T19:45:31.247Z,17.91
2022-08-30T19:49:35.834Z,18.36
2022-08-30T19:53:38.019Z,18.33
2022-08-30T19:57:39.602Z,18.56
2022-08-30T20:01:41.232Z,17.87
2022-08-30T20:05:42.889Z,17.80
2022-08-30T20:09:44.357Z,17.30
2022-08-30T20:13:47.068Z,17.06
2022-08-30T20:22:10.434Z,17.85
2022-08-30T20:26:13.491Z,17.87
2022-08-30T20:30:16.305Z,17.93
2022-08-30T20:34:18.812Z,17.84
2022-08-30T20:38:21.953Z,17.75
2022-08-30T20:42:25.568Z,17.60
2022-08-30T20:46:32.005Z,17.46
2022-08-30T20:50:37.448Z,17.36
2022-08-30T20:54:39.130Z,17.46
2022-08-30T20:58:41.427Z,17.61
2022-08-30T21:02:46.882Z,17.62
2022-08-30T21:06:50.323Z,17.58
2022-08-30T21:10:53.386Z,17.58
2022-08-30T21:14:55.092Z,17.20
2022-08-30T21:18:56.684Z,16.80
2022-08-30T21:22:58.216Z,16.37
2022-08-30T21:27:00.403Z,15.40
2022-08-30T21:31:12.562Z,15.73
2022-08-30T21:35:32.950Z,16.18
2022-08-30T21:39:35.409Z,16.44
2022-08-30T21:43:36.889Z,16.96
2022-08-30T21:47:38.432Z,16.56
2022-08-30T21:51:42.984Z,16.60
2022-08-30T21:55:44.558Z,16.54
2022-08-30T21:59:46.000Z,16.05
2022-08-30T22:03:47.446Z,15.94
2022-08-30T22:07:48.886Z,15.58
2022-08-30T22:11:51.323Z,15.89
2022-08-30T22:15:53.729Z,15.64
2022-08-30T22:19:56.458Z,15.57
2022-08-30T22:23:58.743Z,15.74
2022-08-30T22:28:00.197Z,15.75
2022-08-30T22:32:02.049Z,15.46
2022-08-30T22:36:12.860Z,15.49
2022-08-30T22:40:14.399Z,15.58
2022-08-30T22:44:15.890Z,15.48
2022-08-30T22:48:17.451Z,15.78
2022-08-30T22:52:21.271Z,15.87
2022-08-30T22:56:27.598Z,15.44
2022-08-30T23:00:29.031Z,15.49
2022-08-30T23:04:30.581Z,16.18
2022-08-30T23:08:32.273Z,16.43
2022-08-30T23:12:36.872Z,15.83
2022-08-30T23:16:38.391Z,15.47
2022-08-30T23:20:39.863Z,15.84
2022-08-30T23:25:00.503Z,15.81
2022-08-30T23:29:20.803Z,15.94
2022-08-30T23:33:40.791Z,15.89
2022-08-30T23:38:00.796Z,16.00
2022-08-30T23:42:20.672Z,16.03
2022-08-30T23:46:40.705Z,15.95
2022-08-30T23:51:01.104Z,15.88
2022-08-30T23:55:24.423Z,15.95
2022-08-30T23:59:44.888Z,15.20
